sensor_id;sensor_type;location;lat;lon;timestamp;temperature;humidity
39899;DHT22;25571;47.876;10.642;2023-02-28T00:00:44;-1.20;99.90
39899;DHT22;25571;47.876;10.642;2023-02-28T00:03:10;-1.30;99.90
39899;DHT22;25571;47.876;10.642;2023-02-28T00:05:35;-1.20;99.90
39899;DHT22;25571;47.876;10.642;2023-02-28T00:08:01;-1.30;99.90
39899;DHT22;25571;47.876;10.642;2023-02-28T00:10:29;-1.20;99.90
39899;DHT22;25571;47.876;10.642;2023-02-28T00:12:59;-1.30;99.90
39899;DHT22;25571;47.876;10.642;2023-02-28T00:15:25;-1.20;99.90
39899;DHT22;25571;47.876;10.642;2023-02-28T00:17:51;-1.10;99.90
39899;DHT22;25571;47.876;10.642;2023-02-28T00:20:18;-1.10;99.90
39899;DHT22;25571;47.876;10.642;2023-02-28T00:22:47;-1.10;99.90
39899;DHT22;25571;47.876;10.642;2023-02-28T00:25:15;-1.20;99.90
39899;DHT22;25571;47.876;10.642;2023-02-28T00:27:41;-1.20;99.90
39899;DHT22;25571;47.876;10.642;2023-02-28T00:30:09;-1.40;99.90
39899;DHT22;25571;47.876;10.642;2023-02-28T00:32:35;-1.30;99.90
39899;DHT22;25571;47.876;10.642;2023-02-28T00:35:02;-1.40;99.90
39899;DHT22;25571;47.876;10.642;2023-02-28T00:37:28;-1.50;99.90
39899;DHT22;25571;47.876;10.642;2023-02-28T00:39:53;-1.30;99.90
39899;DHT22;25571;47.876;10.642;2023-02-28T00:42:19;-1.40;99.90
39899;DHT22;25571;47.876;10.642;2023-02-28T00:44:44;-1.30;99.90
39899;DHT22;25571;47.876;10.642;2023-02-28T00:47:10;-1.20;99.90
39899;DHT22;25571;47.876;10.642;2023-02-28T00:49:35;-1.20;99.90
39899;DHT22;25571;47.876;10.642;2023-02-28T00:52:01;-1.30;99.90
39899;DHT22;25571;47.876;10.642;2023-02-28T00:54:27;-1.30;99.90
39899;DHT22;25571;47.876;10.642;2023-02-28T00:56:52;-1.10;99.90
39899;DHT22;25571;47.876;10.642;2023-02-28T00:59:18;-1.20;99.90
39899;DHT22;25571;47.876;10.642;2023-02-28T01:01:45;-1.20;99.90
39899;DHT22;25571;47.876;10.642;2023-02-28T01:04:11;-1.20;99.90
39899;DHT22;25571;47.876;10.642;2023-02-28T01:06:37;-1.20;99.90
39899;DHT22;25571;47.876;10.642;2023-02-28T01:09:04;-1.30;99.90
39899;DHT22;25571;47.876;10.642;2023-02-28T01:11:31;-1.30;99.90
39899;DHT22;25571;47.876;10.642;2023-02-28T01:13:57;-1.20;99.90
39899;DHT22;25571;47.876;10.642;2023-02-28T01:16:23;-1.20;99.90
39899;DHT22;25571;47.876;10.642;2023-02-28T01:18:49;-1.30;99.90
39899;DHT22;25571;47.876;10.642;2023-02-28T01:21:16;-1.30;99.90
39899;DHT22;25571;47.876;10.642;2023-02-28T01:23:42;-1.40;99.90
39899;DHT22;25571;47.876;10.642;2023-02-28T01:26:16;-1.40;99.90
39899;DHT22;25571;47.876;10.642;2023-02-28T01:28:42;-1.40;99.90
39899;DHT22;25571;47.876;10.642;2023-02-28T01:31:09;-1.40;99.90
39899;DHT22;25571;47.876;10.642;2023-02-28T01:33:35;-1.40;99.90
39899;DHT22;25571;47.876;10.642;2023-02-28T01:36:22;-1.50;99.90
39899;DHT22;25571;47.876;10.642;2023-02-28T01:38:48;-1.50;99.90
39899;DHT22;25571;47.876;10.642;2023-02-28T01:41:23;-1.40;99.90
39899;DHT22;25571;47.876;10.642;2023-02-28T01:46:15;-1.40;99.90
39899;DHT22;25571;47.876;10.642;2023-02-28T01:49:13;-1.50;99.90
39899;DHT22;25571;47.876;10.642;2023-02-28T01:51:41;-1.50;99.90
39899;DHT22;25571;47.876;10.642;2023-02-28T01:54:14;-1.50;99.90
39899;DHT22;25571;47.876;10.642;2023-02-28T01:56:52;-1.50;99.90
39899;DHT22;25571;47.876;10.642;2023-02-28T01:59:33;-1.50;99.90
39899;DHT22;25571;47.876;10.642;2023-02-28T02:02:01;-1.40;99.90
39899;DHT22;25571;47.876;10.642;2023-02-28T02:04:35;-1.40;99.90
39899;DHT22;25571;47.876;10.642;2023-02-28T02:07:03;-1.30;99.90
39899;DHT22;25571;47.876;10.642;2023-02-28T02:09:29;-1.30;99.90
39899;DHT22;25571;47.876;10.642;2023-02-28T02:11:55;-1.30;99.90
39899;DHT22;25571;47.876;10.642;2023-02-28T02:14:47;-1.30;99.90
39899;DHT22;25571;47.876;10.642;2023-02-28T02:17:40;-1.40;99.90
39899;DHT22;25571;47.876;10.642;2023-02-28T02:20:19;-1.30;99.90
39899;DHT22;25571;47.876;10.642;2023-02-28T02:25:53;-1.20;99.90
39899;DHT22;25571;47.876;10.642;2023-02-28T02:34:09;-1.20;99.90
39899;DHT22;25571;47.876;10.642;2023-02-28T02:36:51;-1.20;99.90
39899;DHT22;25571;47.876;10.642;2023-02-28T02:39:45;-1.20;99.90
39899;DHT22;25571;47.876;10.642;2023-02-28T02:42:25;-1.10;99.90
39899;DHT22;25571;47.876;10.642;2023-02-28T02:45:07;-1.20;99.90
39899;DHT22;25571;47.876;10.642;2023-02-28T02:47:35;-1.20;99.90
39899;DHT22;25571;47.876;10.642;2023-02-28T02:50:05;-1.10;99.90
39899;DHT22;25571;47.876;10.642;2023-02-28T02:52:44;-1.10;99.90
39899;DHT22;25571;47.876;10.642;2023-02-28T02:55:12;-1.20;99.90
39899;DHT22;25571;47.876;10.642;2023-02-28T02:57:45;-1.30;99.90
39899;DHT22;25571;47.876;10.642;2023-02-28T03:00:12;-1.20;99.90
39899;DHT22;25571;47.876;10.642;2023-02-28T03:02:39;-1.10;99.90
39899;DHT22;25571;47.876;10.642;2023-02-28T03:05:12;-1.20;99.90
39899;DHT22;25571;47.876;10.642;2023-02-28T03:07:41;-1.20;99.90
39899;DHT22;25571;47.876;10.642;2023-02-28T03:10:40;-1.10;99.90
39899;DHT22;25571;47.876;10.642;2023-02-28T03:18:45;-0.90;99.90
39899;DHT22;25571;47.876;10.642;2023-02-28T03:21:34;-0.90;99.90
39899;DHT22;25571;47.876;10.642;2023-02-28T03:24:06;-1.00;99.90
39899;DHT22;25571;47.876;10.642;2023-02-28T03:26:36;-1.00;99.90
39899;DHT22;25571;47.876;10.642;2023-02-28T03:29:23;-0.90;99.90
39899;DHT22;25571;47.876;10.642;2023-02-28T03:32:06;-0.90;99.80
39899;DHT22;25571;47.876;10.642;2023-02-28T03:34:39;-0.90;99.90
39899;DHT22;25571;47.876;10.642;2023-02-28T03:37:15;-0.90;99.90
39899;DHT22;25571;47.876;10.642;2023-02-28T03:39:44;-1.10;99.90
39899;DHT22;25571;47.876;10.642;2023-02-28T03:42:15;-1.10;99.90
39899;DHT22;25571;47.876;10.642;2023-02-28T03:44:50;-1.00;99.90
39899;DHT22;25571;47.876;10.642;2023-02-28T03:47:20;-0.90;99.90
39899;DHT22;25571;47.876;10.642;2023-02-28T03:49:55;-1.00;99.90
39899;DHT22;25571;47.876;10.642;2023-02-28T03:52:27;-0.90;99.90
39899;DHT22;25571;47.876;10.642;2023-02-28T03:54:56;-0.80;99.90
39899;DHT22;25571;47.876;10.642;2023-02-28T03:57:43;-0.90;99.80
39899;DHT22;25571;47.876;10.642;2023-02-28T04:00:21;-0.80;99.90
39899;DHT22;25571;47.876;10.642;2023-02-28T04:02:50;-0.80;99.90
39899;DHT22;25571;47.876;10.642;2023-02-28T04:05:19;-0.80;99.90
39899;DHT22;25571;47.876;10.642;2023-02-28T04:07:44;-0.90;99.70
39899;DHT22;25571;47.876;10.642;2023-02-28T04:10:11;-0.90;99.80
39899;DHT22;25571;47.876;10.642;2023-02-28T04:12:36;-1.00;99.90
39899;DHT22;25571;47.876;10.642;2023-02-28T04:15:02;-0.90;99.90
39899;DHT22;25571;47.876;10.642;2023-02-28T04:17:28;-1.10;99.90
39899;DHT22;25571;47.876;10.642;2023-02-28T04:19:54;-1.10;99.90
39899;DHT22;25571;47.876;10.642;2023-02-28T04:22:21;-1.00;99.90
39899;DHT22;25571;47.876;10.642;2023-02-28T04:24:47;-1.00;99.90
39899;DHT22;25571;47.876;10.642;2023-02-28T04:27:12;-1.00;99.90
39899;DHT22;25571;47.876;10.642;2023-02-28T04:29:41;-1.30;99.90
39899;DHT22;25571;47.876;10.642;2023-02-28T04:32:10;-1.20;99.90
39899;DHT22;25571;47.876;10.642;2023-02-28T04:34:36;-1.30;99.90
39899;DHT22;25571;47.876;10.642;2023-02-28T04:37:02;-1.40;99.90
39899;DHT22;25571;47.876;10.642;2023-02-28T04:39:28;-1.40;99.90
39899;DHT22;25571;47.876;10.642;2023-02-28T04:41:55;-1.40;99.90
39899;DHT22;25571;47.876;10.642;2023-02-28T04:44:21;-1.40;99.90
39899;DHT22;25571;47.876;10.642;2023-02-28T04:46:47;-1.50;99.90
39899;DHT22;25571;47.876;10.642;2023-02-28T04:49:13;-1.40;99.90
39899;DHT22;25571;47.876;10.642;2023-02-28T04:51:39;-1.50;99.90
39899;DHT22;25571;47.876;10.642;2023-02-28T04:54:05;-1.60;99.90
39899;DHT22;25571;47.876;10.642;2023-02-28T04:56:31;-1.60;99.90
39899;DHT22;25571;47.876;10.642;2023-02-28T04:58:56;-1.50;99.90
39899;DHT22;25571;47.876;10.642;2023-02-28T05:01:30;-1.60;99.90
39899;DHT22;25571;47.876;10.642;2023-02-28T05:03:59;-1.70;99.90
39899;DHT22;25571;47.876;10.642;2023-02-28T05:06:26;-1.70;99.90
39899;DHT22;25571;47.876;10.642;2023-02-28T05:08:53;-1.70;99.90
39899;DHT22;25571;47.876;10.642;2023-02-28T05:11:22;-1.60;99.90
39899;DHT22;25571;47.876;10.642;2023-02-28T05:13:48;-1.70;99.90
39899;DHT22;25571;47.876;10.642;2023-02-28T05:16:15;-1.70;99.90
39899;DHT22;25571;47.876;10.642;2023-02-28T05:18:40;-1.60;99.90
39899;DHT22;25571;47.876;10.642;2023-02-28T05:21:12;-1.60;99.90
39899;DHT22;25571;47.876;10.642;2023-02-28T05:23:49;-1.50;99.90
39899;DHT22;25571;47.876;10.642;2023-02-28T05:26:14;-1.60;99.90
39899;DHT22;25571;47.876;10.642;2023-02-28T05:28:40;-1.60;99.90
39899;DHT22;25571;47.876;10.642;2023-02-28T05:31:05;-1.60;99.90
39899;DHT22;25571;47.876;10.642;2023-02-28T05:33:31;-1.50;99.90
39899;DHT22;25571;47.876;10.642;2023-02-28T05:35:56;-1.50;99.90
39899;DHT22;25571;47.876;10.642;2023-02-28T05:38:22;-1.50;99.90
39899;DHT22;25571;47.876;10.642;2023-02-28T05:40:47;-1.50;99.90
39899;DHT22;25571;47.876;10.642;2023-02-28T05:43:13;-1.60;99.90
39899;DHT22;25571;47.876;10.642;2023-02-28T05:45:38;-1.50;99.90
39899;DHT22;25571;47.876;10.642;2023-02-28T05:48:04;-1.50;99.90
39899;DHT22;25571;47.876;10.642;2023-02-28T05:50:30;-1.50;99.90
39899;DHT22;25571;47.876;10.642;2023-02-28T05:52:55;-1.50;99.90
39899;DHT22;25571;47.876;10.642;2023-02-28T05:55:21;-1.50;99.90
39899;DHT22;25571;47.876;10.642;2023-02-28T05:57:46;-1.70;99.90
39899;DHT22;25571;47.876;10.642;2023-02-28T06:00:12;-1.80;99.90
39899;DHT22;25571;47.876;10.642;2023-02-28T06:02:40;-1.80;99.90
39899;DHT22;25571;47.876;10.642;2023-02-28T06:05:15;-1.70;99.90
39899;DHT22;25571;47.876;10.642;2023-02-28T06:07:41;-1.80;99.90
39899;DHT22;25571;47.876;10.642;2023-02-28T06:10:07;-2.00;99.90
39899;DHT22;25571;47.876;10.642;2023-02-28T06:12:33;-2.20;99.90
39899;DHT22;25571;47.876;10.642;2023-02-28T06:14:58;-2.10;99.90
39899;DHT22;25571;47.876;10.642;2023-02-28T06:17:24;-1.90;99.90
39899;DHT22;25571;47.876;10.642;2023-02-28T06:19:49;-2.10;99.90
39899;DHT22;25571;47.876;10.642;2023-02-28T06:22:15;-2.10;99.90
39899;DHT22;25571;47.876;10.642;2023-02-28T06:24:40;-2.20;99.90
39899;DHT22;25571;47.876;10.642;2023-02-28T06:27:06;-2.20;99.90
39899;DHT22;25571;47.876;10.642;2023-02-28T06:29:33;-2.20;99.90
39899;DHT22;25571;47.876;10.642;2023-02-28T06:31:59;-2.40;99.90
39899;DHT22;25571;47.876;10.642;2023-02-28T06:34:24;-2.30;99.90
39899;DHT22;25571;47.876;10.642;2023-02-28T06:36:51;-2.30;99.90
39899;DHT22;25571;47.876;10.642;2023-02-28T06:39:17;-2.30;99.90
39899;DHT22;25571;47.876;10.642;2023-02-28T06:41:43;-2.20;99.90
39899;DHT22;25571;47.876;10.642;2023-02-28T06:44:15;-2.10;99.90
39899;DHT22;25571;47.876;10.642;2023-02-28T06:46:42;-2.10;99.90
39899;DHT22;25571;47.876;10.642;2023-02-28T06:49:09;-2.10;99.90
39899;DHT22;25571;47.876;10.642;2023-02-28T06:51:36;-1.90;99.90
39899;DHT22;25571;47.876;10.642;2023-02-28T06:54:03;-2.00;99.90
39899;DHT22;25571;47.876;10.642;2023-02-28T06:56:28;-2.00;99.90
39899;DHT22;25571;47.876;10.642;2023-02-28T06:58:54;-2.10;99.90
39899;DHT22;25571;47.876;10.642;2023-02-28T07:01:20;-2.20;99.90
39899;DHT22;25571;47.876;10.642;2023-02-28T07:03:46;-2.30;99.90
39899;DHT22;25571;47.876;10.642;2023-02-28T07:06:12;-2.40;99.90
39899;DHT22;25571;47.876;10.642;2023-02-28T07:08:38;-2.50;99.90
39899;DHT22;25571;47.876;10.642;2023-02-28T07:11:05;-2.50;99.90
39899;DHT22;25571;47.876;10.642;2023-02-28T07:13:30;-2.50;99.90
39899;DHT22;25571;47.876;10.642;2023-02-28T07:16:06;-2.50;99.90
39899;DHT22;25571;47.876;10.642;2023-02-28T07:18:34;-2.50;99.90
39899;DHT22;25571;47.876;10.642;2023-02-28T07:21:04;-2.50;99.90
39899;DHT22;25571;47.876;10.642;2023-02-28T07:23:30;-2.30;99.90
39899;DHT22;25571;47.876;10.642;2023-02-28T07:25:56;-2.20;99.90
39899;DHT22;25571;47.876;10.642;2023-02-28T07:28:22;-2.00;99.90
39899;DHT22;25571;47.876;10.642;2023-02-28T07:30:47;-1.90;99.90
39899;DHT22;25571;47.876;10.642;2023-02-28T07:33:13;-1.80;99.90
39899;DHT22;25571;47.876;10.642;2023-02-28T07:35:39;-1.80;99.90
39899;DHT22;25571;47.876;10.642;2023-02-28T07:38:05;-1.80;99.90
39899;DHT22;25571;47.876;10.642;2023-02-28T07:40:33;-1.70;99.90
39899;DHT22;25571;47.876;10.642;2023-02-28T07:43:00;-1.80;99.90
39899;DHT22;25571;47.876;10.642;2023-02-28T07:45:26;-2.00;99.90
39899;DHT22;25571;47.876;10.642;2023-02-28T07:47:52;-2.00;99.90
39899;DHT22;25571;47.876;10.642;2023-02-28T07:50:18;-2.30;99.90
39899;DHT22;25571;47.876;10.642;2023-02-28T07:52:43;-2.20;99.90
39899;DHT22;25571;47.876;10.642;2023-02-28T07:55:09;-2.20;99.90
39899;DHT22;25571;47.876;10.642;2023-02-28T07:57:35;-2.30;99.90
39899;DHT22;25571;47.876;10.642;2023-02-28T08:00:03;-2.30;99.90
39899;DHT22;25571;47.876;10.642;2023-02-28T08:02:29;-2.10;99.90
39899;DHT22;25571;47.876;10.642;2023-02-28T08:04:54;-1.90;99.90
39899;DHT22;25571;47.876;10.642;2023-02-28T08:07:20;-1.80;99.90
39899;DHT22;25571;47.876;10.642;2023-02-28T08:09:46;-1.70;99.90
39899;DHT22;25571;47.876;10.642;2023-02-28T08:12:11;-1.60;99.90
39899;DHT22;25571;47.876;10.642;2023-02-28T08:14:37;-1.60;99.90
39899;DHT22;25571;47.876;10.642;2023-02-28T08:17:03;-1.70;99.90
39899;DHT22;25571;47.876;10.642;2023-02-28T08:19:29;-1.60;99.90
39899;DHT22;25571;47.876;10.642;2023-02-28T08:21:55;-1.40;99.90
39899;DHT22;25571;47.876;10.642;2023-02-28T08:24:21;-1.50;99.90
39899;DHT22;25571;47.876;10.642;2023-02-28T08:26:47;-1.50;99.90
39899;DHT22;25571;47.876;10.642;2023-02-28T08:29:12;-1.40;99.90
39899;DHT22;25571;47.876;10.642;2023-02-28T08:31:38;-1.30;99.90
39899;DHT22;25571;47.876;10.642;2023-02-28T08:34:12;-1.20;99.90
39899;DHT22;25571;47.876;10.642;2023-02-28T08:36:39;-1.20;99.90
39899;DHT22;25571;47.876;10.642;2023-02-28T08:39:06;-1.20;99.90
39899;DHT22;25571;47.876;10.642;2023-02-28T08:41:32;-1.30;99.90
39899;DHT22;25571;47.876;10.642;2023-02-28T08:43:57;-1.10;99.90
39899;DHT22;25571;47.876;10.642;2023-02-28T08:46:23;-1.00;99.90
39899;DHT22;25571;47.876;10.642;2023-02-28T08:48:52;-1.10;99.90
39899;DHT22;25571;47.876;10.642;2023-02-28T08:51:19;-1.20;99.90
39899;DHT22;25571;47.876;10.642;2023-02-28T08:53:54;-1.20;99.90
39899;DHT22;25571;47.876;10.642;2023-02-28T08:56:20;-1.20;99.90
39899;DHT22;25571;47.876;10.642;2023-02-28T08:58:48;-1.10;99.90
39899;DHT22;25571;47.876;10.642;2023-02-28T09:01:19;-1.00;99.90
39899;DHT22;25571;47.876;10.642;2023-02-28T09:03:47;-0.90;99.90
39899;DHT22;25571;47.876;10.642;2023-02-28T09:06:13;-0.90;99.90
39899;DHT22;25571;47.876;10.642;2023-02-28T09:08:41;-0.90;99.90
39899;DHT22;25571;47.876;10.642;2023-02-28T09:11:07;-1.00;99.90
39899;DHT22;25571;47.876;10.642;2023-02-28T09:13:33;-0.80;99.90
39899;DHT22;25571;47.876;10.642;2023-02-28T09:16:00;-0.90;99.90
39899;DHT22;25571;47.876;10.642;2023-02-28T09:18:26;-0.90;99.90
39899;DHT22;25571;47.876;10.642;2023-02-28T09:20:52;-0.90;99.90
39899;DHT22;25571;47.876;10.642;2023-02-28T09:23:18;-1.00;99.90
39899;DHT22;25571;47.876;10.642;2023-02-28T09:25:49;-1.10;99.90
39899;DHT22;25571;47.876;10.642;2023-02-28T09:28:15;-0.90;99.90
39899;DHT22;25571;47.876;10.642;2023-02-28T09:30:42;-0.80;99.90
39899;DHT22;25571;47.876;10.642;2023-02-28T09:33:09;-0.70;99.90
39899;DHT22;25571;47.876;10.642;2023-02-28T09:35:34;-0.50;99.90
39899;DHT22;25571;47.876;10.642;2023-02-28T09:38:02;-0.60;99.90
39899;DHT22;25571;47.876;10.642;2023-02-28T09:40:28;-0.60;99.90
39899;DHT22;25571;47.876;10.642;2023-02-28T09:42:56;-0.50;99.90
39899;DHT22;25571;47.876;10.642;2023-02-28T09:45:37;-0.50;99.90
39899;DHT22;25571;47.876;10.642;2023-02-28T09:48:26;-0.40;99.90
39899;DHT22;25571;47.876;10.642;2023-02-28T09:51:00;-0.30;99.90
39899;DHT22;25571;47.876;10.642;2023-02-28T09:53:33;-0.50;99.90
39899;DHT22;25571;47.876;10.642;2023-02-28T09:56:11;-0.50;99.90
39899;DHT22;25571;47.876;10.642;2023-02-28T09:59:01;-0.60;99.90
39899;DHT22;25571;47.876;10.642;2023-02-28T10:01:58;-0.40;99.90
39899;DHT22;25571;47.876;10.642;2023-02-28T10:04:47;-0.20;99.90
39899;DHT22;25571;47.876;10.642;2023-02-28T10:10:14;-0.10;99.90
39899;DHT22;25571;47.876;10.642;2023-02-28T10:12:41;-0.30;99.90
39899;DHT22;25571;47.876;10.642;2023-02-28T10:15:14;-0.20;99.90
39899;DHT22;25571;47.876;10.642;2023-02-28T10:17:42;0.00;99.90
39899;DHT22;25571;47.876;10.642;2023-02-28T10:20:15;0.00;99.90
39899;DHT22;25571;47.876;10.642;2023-02-28T10:25:35;0.00;99.90
39899;DHT22;25571;47.876;10.642;2023-02-28T10:28:09;0.10;99.90
39899;DHT22;25571;47.876;10.642;2023-02-28T10:30:38;0.00;99.90
39899;DHT22;25571;47.876;10.642;2023-02-28T10:33:05;0.10;99.90
39899;DHT22;25571;47.876;10.642;2023-02-28T10:35:31;0.20;99.90
39899;DHT22;25571;47.876;10.642;2023-02-28T10:38:00;0.30;99.90
39899;DHT22;25571;47.876;10.642;2023-02-28T10:40:31;0.20;99.90
39899;DHT22;25571;47.876;10.642;2023-02-28T10:43:00;0.20;99.90
39899;DHT22;25571;47.876;10.642;2023-02-28T10:45:28;0.20;99.90
39899;DHT22;25571;47.876;10.642;2023-02-28T10:48:02;0.20;99.90
39899;DHT22;25571;47.876;10.642;2023-02-28T10:53:24;0.10;99.90
39899;DHT22;25571;47.876;10.642;2023-02-28T10:56:06;0.00;99.90
39899;DHT22;25571;47.876;10.642;2023-02-28T10:58:47;0.10;99.90
39899;DHT22;25571;47.876;10.642;2023-02-28T11:01:16;0.00;99.90
39899;DHT22;25571;47.876;10.642;2023-02-28T11:03:42;0.20;99.90
39899;DHT22;25571;47.876;10.642;2023-02-28T11:08:53;0.20;99.90
39899;DHT22;25571;47.876;10.642;2023-02-28T11:11:21;0.10;99.90
39899;DHT22;25571;47.876;10.642;2023-02-28T11:13:53;0.20;99.90
39899;DHT22;25571;47.876;10.642;2023-02-28T11:16:20;0.30;99.90
39899;DHT22;25571;47.876;10.642;2023-02-28T11:18:50;0.10;99.90
39899;DHT22;25571;47.876;10.642;2023-02-28T11:23:49;0.10;99.90
39899;DHT22;25571;47.876;10.642;2023-02-28T11:26:16;0.10;99.90
39899;DHT22;25571;47.876;10.642;2023-02-28T11:29:30;0.20;99.90
39899;DHT22;25571;47.876;10.642;2023-02-28T11:32:23;0.20;99.90
39899;DHT22;25571;47.876;10.642;2023-02-28T11:35:32;0.00;99.90
39899;DHT22;25571;47.876;10.642;2023-02-28T11:38:00;0.10;99.90
39899;DHT22;25571;47.876;10.642;2023-02-28T11:46:24;0.30;99.90
39899;DHT22;25571;47.876;10.642;2023-02-28T11:51:28;0.30;99.90
39899;DHT22;25571;47.876;10.642;2023-02-28T11:56:46;0.10;99.90
39899;DHT22;25571;47.876;10.642;2023-02-28T12:07:18;0.00;99.90
39899;DHT22;25571;47.876;10.642;2023-02-28T12:15:54;-0.10;99.90
39899;DHT22;25571;47.876;10.642;2023-02-28T12:21:31;0.00;99.90
39899;DHT22;25571;47.876;10.642;2023-02-28T12:24:10;0.20;99.90
39899;DHT22;25571;47.876;10.642;2023-02-28T12:26:44;0.30;99.90
39899;DHT22;25571;47.876;10.642;2023-02-28T12:34:32;0.30;99.90
39899;DHT22;25571;47.876;10.642;2023-02-28T12:37:03;0.30;99.90
39899;DHT22;25571;47.876;10.642;2023-02-28T12:39:34;0.20;99.90
39899;DHT22;25571;47.876;10.642;2023-02-28T12:42:05;0.30;99.90
39899;DHT22;25571;47.876;10.642;2023-02-28T12:44:52;0.50;99.90
39899;DHT22;25571;47.876;10.642;2023-02-28T12:47:19;0.60;99.90
39899;DHT22;25571;47.876;10.642;2023-02-28T12:50:05;0.60;99.90
39899;DHT22;25571;47.876;10.642;2023-02-28T12:58:14;0.60;99.90
39899;DHT22;25571;47.876;10.642;2023-02-28T13:09:02;0.10;99.90
39899;DHT22;25571;47.876;10.642;2023-02-28T13:11:49;0.20;99.90
39899;DHT22;25571;47.876;10.642;2023-02-28T13:14:37;0.20;99.90
39899;DHT22;25571;47.876;10.642;2023-02-28T13:19:37;0.50;99.90
39899;DHT22;25571;47.876;10.642;2023-02-28T13:22:04;0.50;99.90
39899;DHT22;25571;47.876;10.642;2023-02-28T13:24:41;0.50;99.90
39899;DHT22;25571;47.876;10.642;2023-02-28T13:29:41;0.50;99.90
39899;DHT22;25571;47.876;10.642;2023-02-28T13:47:58;0.90;99.90
39899;DHT22;25571;47.876;10.642;2023-02-28T13:50:36;0.90;99.50
39899;DHT22;25571;47.876;10.642;2023-02-28T13:58:41;1.00;99.30
39899;DHT22;25571;47.876;10.642;2023-02-28T14:01:30;0.90;99.30
39899;DHT22;25571;47.876;10.642;2023-02-28T14:07:00;0.90;99.80
39899;DHT22;25571;47.876;10.642;2023-02-28T14:09:33;0.90;99.70
39899;DHT22;25571;47.876;10.642;2023-02-28T14:15:04;0.50;99.90
39899;DHT22;25571;47.876;10.642;2023-02-28T14:17:31;0.60;99.90
39899;DHT22;25571;47.876;10.642;2023-02-28T14:19:57;0.70;99.90
39899;DHT22;25571;47.876;10.642;2023-02-28T14:28:25;0.80;99.90
39899;DHT22;25571;47.876;10.642;2023-02-28T14:31:15;0.90;99.90
39899;DHT22;25571;47.876;10.642;2023-02-28T14:33:44;1.10;99.90
39899;DHT22;25571;47.876;10.642;2023-02-28T14:36:37;1.00;99.40
39899;DHT22;25571;47.876;10.642;2023-02-28T14:39:13;1.00;99.80
39899;DHT22;25571;47.876;10.642;2023-02-28T14:41:41;1.00;99.90
39899;DHT22;25571;47.876;10.642;2023-02-28T14:44:33;1.20;99.60
39899;DHT22;25571;47.876;10.642;2023-02-28T14:47:02;1.20;99.40
39899;DHT22;25571;47.876;10.642;2023-02-28T14:49:44;1.30;99.30
39899;DHT22;25571;47.876;10.642;2023-02-28T14:52:21;1.30;99.40
39899;DHT22;25571;47.876;10.642;2023-02-28T14:54:59;1.20;98.90
39899;DHT22;25571;47.876;10.642;2023-02-28T14:57:33;1.30;99.10
39899;DHT22;25571;47.876;10.642;2023-02-28T15:00:03;1.40;99.30
39899;DHT22;25571;47.876;10.642;2023-02-28T15:02:35;1.40;99.00
39899;DHT22;25571;47.876;10.642;2023-02-28T15:07:35;1.40;99.40
39899;DHT22;25571;47.876;10.642;2023-02-28T15:15:22;1.50;99.00
39899;DHT22;25571;47.876;10.642;2023-02-28T15:17:52;1.30;99.10
39899;DHT22;25571;47.876;10.642;2023-02-28T15:20:19;1.10;99.50
39899;DHT22;25571;47.876;10.642;2023-02-28T15:22:46;1.00;99.60
39899;DHT22;25571;47.876;10.642;2023-02-28T15:25:17;1.00;99.90
39899;DHT22;25571;47.876;10.642;2023-02-28T15:27:50;1.00;99.90
39899;DHT22;25571;47.876;10.642;2023-02-28T15:30:30;1.00;99.90
39899;DHT22;25571;47.876;10.642;2023-02-28T15:33:19;1.00;99.70
39899;DHT22;25571;47.876;10.642;2023-02-28T15:35:45;1.10;99.80
39899;DHT22;25571;47.876;10.642;2023-02-28T15:38:24;1.10;99.50
39899;DHT22;25571;47.876;10.642;2023-02-28T15:40:57;1.00;99.70
39899;DHT22;25571;47.876;10.642;2023-02-28T15:43:31;1.00;99.70
39899;DHT22;25571;47.876;10.642;2023-02-28T15:46:15;1.00;99.80
39899;DHT22;25571;47.876;10.642;2023-02-28T15:48:54;0.90;99.90
39899;DHT22;25571;47.876;10.642;2023-02-28T15:51:36;0.90;99.90
39899;DHT22;25571;47.876;10.642;2023-02-28T15:54:08;0.90;99.90
39899;DHT22;25571;47.876;10.642;2023-02-28T15:56:39;0.80;99.90
39899;DHT22;25571;47.876;10.642;2023-02-28T15:59:15;0.90;99.90
39899;DHT22;25571;47.876;10.642;2023-02-28T16:01:41;0.90;99.90
39899;DHT22;25571;47.876;10.642;2023-02-28T16:04:15;1.00;99.90
39899;DHT22;25571;47.876;10.642;2023-02-28T16:07:04;1.00;99.90
39899;DHT22;25571;47.876;10.642;2023-02-28T16:09:30;0.90;99.90
39899;DHT22;25571;47.876;10.642;2023-02-28T16:12:00;1.00;99.90
39899;DHT22;25571;47.876;10.642;2023-02-28T16:14:29;1.00;99.90
39899;DHT22;25571;47.876;10.642;2023-02-28T16:17:06;1.00;99.90
39899;DHT22;25571;47.876;10.642;2023-02-28T16:19:34;1.10;99.90
39899;DHT22;25571;47.876;10.642;2023-02-28T16:22:00;1.20;99.80
39899;DHT22;25571;47.876;10.642;2023-02-28T16:24:26;1.20;99.70
39899;DHT22;25571;47.876;10.642;2023-02-28T16:26:53;1.20;99.70
39899;DHT22;25571;47.876;10.642;2023-02-28T16:29:32;1.20;99.70
39899;DHT22;25571;47.876;10.642;2023-02-28T16:31:59;1.10;99.80
39899;DHT22;25571;47.876;10.642;2023-02-28T16:34:25;1.10;99.70
39899;DHT22;25571;47.876;10.642;2023-02-28T16:36:51;1.10;99.60
39899;DHT22;25571;47.876;10.642;2023-02-28T16:39:17;1.10;99.70
39899;DHT22;25571;47.876;10.642;2023-02-28T16:41:45;1.10;99.60
39899;DHT22;25571;47.876;10.642;2023-02-28T16:44:30;1.10;99.60
39899;DHT22;25571;47.876;10.642;2023-02-28T16:46:56;1.10;99.60
39899;DHT22;25571;47.876;10.642;2023-02-28T16:49:22;1.10;99.50
39899;DHT22;25571;47.876;10.642;2023-02-28T16:51:47;1.10;99.70
39899;DHT22;25571;47.876;10.642;2023-02-28T16:54:13;1.20;99.50
39899;DHT22;25571;47.876;10.642;2023-02-28T16:56:42;1.10;99.60
39899;DHT22;25571;47.876;10.642;2023-02-28T16:59:08;1.00;99.40
39899;DHT22;25571;47.876;10.642;2023-02-28T17:01:35;1.00;99.50
39899;DHT22;25571;47.876;10.642;2023-02-28T17:04:01;0.90;99.30
39899;DHT22;25571;47.876;10.642;2023-02-28T17:06:28;1.00;99.60
39899;DHT22;25571;47.876;10.642;2023-02-28T17:08:54;0.90;99.30
39899;DHT22;25571;47.876;10.642;2023-02-28T17:11:21;0.80;99.60
39899;DHT22;25571;47.876;10.642;2023-02-28T17:13:47;0.70;99.60
39899;DHT22;25571;47.876;10.642;2023-02-28T17:16:31;0.80;99.80
39899;DHT22;25571;47.876;10.642;2023-02-28T17:19:01;0.80;99.30
39899;DHT22;25571;47.876;10.642;2023-02-28T17:21:29;0.70;99.00
39899;DHT22;25571;47.876;10.642;2023-02-28T17:23:55;0.70;99.00
39899;DHT22;25571;47.876;10.642;2023-02-28T17:26:22;0.70;99.00
39899;DHT22;25571;47.876;10.642;2023-02-28T17:28:56;0.60;99.00
39899;DHT22;25571;47.876;10.642;2023-02-28T17:31:23;0.60;98.50
39899;DHT22;25571;47.876;10.642;2023-02-28T17:33:49;0.60;98.40
39899;DHT22;25571;47.876;10.642;2023-02-28T17:36:18;0.50;98.40
39899;DHT22;25571;47.876;10.642;2023-02-28T17:38:47;0.40;98.60
39899;DHT22;25571;47.876;10.642;2023-02-28T17:41:16;0.50;98.70
39899;DHT22;25571;47.876;10.642;2023-02-28T17:43:41;0.50;98.50
39899;DHT22;25571;47.876;10.642;2023-02-28T17:46:19;0.40;98.40